NSN weather

Nelson Airport
Nelson, Nelson Region, New Zealand

Public forecast

Using degrees Celsius for public forecast. Weather courtesy of forecast.io.

Closest aviation weather report (METAR) to Nelson Airport

Closest report is Wellington International Airport, 71.5 nm (132.3 km) E. Retrieved 2019/10/15 08:30 UTC (0 seconds ago):

NZWN 150830Z AUTO 15014KT 9999 FEW029/// BKN049/// OVC075/// 13/09 Q1006 BECMG FM0900 BKN008

Closest aviation forecast (TAF) to Nelson Airport

Closest forecast is Wellington International Airport, 71.5 nm (132.3 km) E. Retrieved 2019/10/15 06:10 UTC (2 hours ago):

TAF NZWN 150501Z 1506/1606 15015G25KT 9999 -RA FEW012 BKN025 TEMPO 1506/1508 7000 RA BECMG 1508/1510 16015KT BKN008 BECMG 1512/1514 5000 -DZ BKN004 TEMPO 1514/1522 2000 DZ BKN002 FM152200 18015G25KT 9999 -DZ BKN008 TEMPO 1522/1605 3000 DZ BKN004